Time;durP1;ratioP1;P1;durP2;ratioP2;P2;SDS_P1;SDS_P2;PMS_P1;PMS_P2;Temp;Humidity;BMP_temperature;BMP_pressure;BME280_temperature;BME280_humidity;BME280_pressure;Samples;Min_cycle;Max_cycle;Signal;HPM_P1;HPM_P2
2022/06/06 00:00:41;;;;;;;4.40;4.30;;;;;;;;;;5076869;28;20394;-66
2022/06/06 00:03:07;;;;;;;4.57;4.00;;;;;;;;;;5076780;28;20970;-66
2022/06/06 00:05:33;;;;;;;6.50;4.57;;;;;;;;;;5076756;28;20418;-66
2022/06/06 00:07:59;;;;;;;4.50;4.10;;;;;;;;;;5076662;28;20879;-67
2022/06/06 00:10:26;;;;;;;4.00;3.90;;;;;;;;;;5076674;28;20395;-69
2022/06/06 00:12:52;;;;;;;7.30;3.97;;;;;;;;;;5076502;28;20451;-67
2022/06/06 00:15:18;;;;;;;5.33;4.57;;;;;;;;;;5076572;28;20766;-67
2022/06/06 00:17:44;;;;;;;5.13;4.63;;;;;;;;;;5076515;28;20407;-67
2022/06/06 00:20:10;;;;;;;4.87;4.43;;;;;;;;;;5050320;28;20441;-66
2022/06/06 00:22:36;;;;;;;6.00;4.37;;;;;;;;;;5076416;28;20774;-67
2022/06/06 00:25:03;;;;;;;8.10;4.10;;;;;;;;;;5076376;28;20404;-67
2022/06/06 00:27:30;;;;;;;4.37;4.07;;;;;;;;;;5076537;28;20418;-66
2022/06/06 00:29:56;;;;;;;3.70;3.60;;;;;;;;;;5076191;28;20888;-66
2022/06/06 00:35:07;;;;;;;4.77;4.33;;;;;;;;;;5076451;28;20401;-67
2022/06/06 00:37:34;;;;;;;4.50;3.80;;;;;;;;;;5076072;28;20407;-67
2022/06/06 00:40:03;;;;;;;5.03;3.80;;;;;;;;;;5076049;28;20851;-66
2022/06/06 00:42:31;;;;;;;5.60;4.13;;;;;;;;;;5076086;28;20403;-67
2022/06/06 00:45:23;;;;;;;6.83;4.20;;;;;;;;;;5076004;28;20426;-67
2022/06/06 00:47:51;;;;;;;3.53;3.43;;;;;;;;;;5067896;28;20432;-66
2022/06/06 00:50:19;;;;;;;4.90;4.17;;;;;;;;;;5075773;28;20509;-67
2022/06/06 00:52:46;;;;;;;4.53;4.13;;;;;;;;;;5076056;28;20459;-67
2022/06/06 00:55:17;;;;;;;5.07;4.67;;;;;;;;;;5075843;28;20478;-67
2022/06/06 00:57:47;;;;;;;4.43;4.23;;;;;;;;;;5075790;28;20428;-67
2022/06/06 01:00:14;;;;;;;4.13;3.87;;;;;;;;;;5075682;28;20392;-67
2022/06/06 01:02:41;;;;;;;5.80;4.10;;;;;;;;;;5075701;28;20406;-67
2022/06/06 01:05:07;;;;;;;4.20;3.90;;;;;;;;;;5075643;28;20391;-67
2022/06/06 01:07:34;;;;;;;9.27;3.97;;;;;;;;;;5075610;28;20492;-67
2022/06/06 01:10:01;;;;;;;6.27;4.57;;;;;;;;;;5075493;28;20876;-67
2022/06/06 01:12:28;;;;;;;4.90;3.77;;;;;;;;;;5075693;28;20412;-67
2022/06/06 01:14:56;;;;;;;9.87;3.63;;;;;;;;;;5075433;28;20898;-68
2022/06/06 01:17:25;;;;;;;8.60;3.90;;;;;;;;;;5075516;28;20885;-67
2022/06/06 01:20:09;;;;;;;4.87;4.17;;;;;;;;;;5075426;28;20426;-66
2022/06/06 01:22:38;;;;;;;5.03;3.60;;;;;;;;;;5075677;28;20400;-66
2022/06/06 01:25:23;;;;;;;6.20;4.27;;;;;;;;;;5075197;28;20496;-66
2022/06/06 01:27:49;;;;;;;9.53;4.20;;;;;;;;;;5075377;28;20406;-66
2022/06/06 01:30:17;;;;;;;6.03;4.20;;;;;;;;;;5075030;28;20474;-66
2022/06/06 01:32:44;;;;;;;7.37;4.80;;;;;;;;;;5057046;28;20469;-66
2022/06/06 01:35:11;;;;;;;3.90;3.60;;;;;;;;;;5066946;28;20768;-67
2022/06/06 01:37:38;;;;;;;6.10;3.60;;;;;;;;;;5095307;28;20393;-67
2022/06/06 01:40:07;;;;;;;7.83;3.83;;;;;;;;;;5095184;28;20886;-67
2022/06/06 01:42:53;;;;;;;3.53;3.23;;;;;;;;;;5095202;28;20769;-66
2022/06/06 01:45:22;;;;;;;5.17;4.20;;;;;;;;;;5081047;28;20799;-66
2022/06/06 01:47:50;;;;;;;13.17;3.63;;;;;;;;;;5095101;28;20488;-67
2022/06/06 01:50:17;;;;;;;17.00;4.60;;;;;;;;;;5095020;28;20410;-66
2022/06/06 01:52:51;;;;;;;11.13;5.60;;;;;;;;;;5094844;28;20461;-66
2022/06/06 01:55:17;;;;;;;6.37;5.73;;;;;;;;;;5094943;28;20460;-66
2022/06/06 01:57:43;;;;;;;7.10;6.23;;;;;;;;;;5094850;28;20398;-66
2022/06/06 02:00:10;;;;;;;5.77;5.40;;;;;;;;;;5094837;28;20496;-66
2022/06/06 02:02:36;;;;;;;6.90;6.30;;;;;;;;;;5094776;28;20398;-66
2022/06/06 02:05:02;;;;;;;6.63;6.03;;;;;;;;;;5094888;28;20821;-66
2022/06/06 02:07:28;;;;;;;8.27;6.07;;;;;;;;;;5094728;28;20387;-67
2022/06/06 02:09:54;;;;;;;8.53;6.27;;;;;;;;;;5094605;28;20440;-66
2022/06/06 02:12:20;;;;;;;6.40;5.90;;;;;;;;;;5092763;28;20442;-66
2022/06/06 02:14:47;;;;;;;6.73;6.10;;;;;;;;;;5094544;28;20410;-66
2022/06/06 02:17:13;;;;;;;10.13;6.80;;;;;;;;;;5094810;28;20403;-66
2022/06/06 02:19:39;;;;;;;13.10;7.10;;;;;;;;;;5093193;28;20476;-66
2022/06/06 02:22:06;;;;;;;6.93;6.33;;;;;;;;;;5094812;28;20411;-66
2022/06/06 02:24:32;;;;;;;6.30;5.93;;;;;;;;;;5094462;28;20418;-66
2022/06/06 02:26:58;;;;;;;5.70;5.33;;;;;;;;;;5094378;28;20877;-66
2022/06/06 02:29:24;;;;;;;7.23;6.60;;;;;;;;;;5094290;28;20461;-66
2022/06/06 02:31:50;;;;;;;6.63;6.10;;;;;;;;;;5094338;28;20412;-66
2022/06/06 02:34:16;;;;;;;8.23;7.37;;;;;;;;;;5094158;28;20960;-66
2022/06/06 02:36:42;;;;;;;7.97;7.40;;;;;;;;;;5094228;28;20399;-66
2022/06/06 02:39:09;;;;;;;8.50;7.83;;;;;;;;;;5094156;28;20448;-66
2022/06/06 02:41:34;;;;;;;8.80;7.97;;;;;;;;;;5094056;28;20891;-66
2022/06/06 02:44:00;;;;;;;24.27;21.60;;;;;;;;;;5093998;28;20398;-66
2022/06/06 02:46:26;;;;;;;9.00;8.10;;;;;;;;;;5093987;28;20862;-66
2022/06/06 02:48:52;;;;;;;8.87;7.90;;;;;;;;;;5094226;28;20416;-66
2022/06/06 02:51:18;;;;;;;8.53;7.77;;;;;;;;;;5094008;28;20754;-66
2022/06/06 02:53:44;;;;;;;14.27;8.57;;;;;;;;;;5093862;28;20501;-66
2022/06/06 02:56:10;;;;;;;11.20;7.77;;;;;;;;;;5093992;28;20395;-66
2022/06/06 02:58:36;;;;;;;9.30;8.43;;;;;;;;;;5093861;28;20433;-66
2022/06/06 03:01:04;;;;;;;8.80;7.90;;;;;;;;;;5093815;28;20488;-66
2022/06/06 03:03:31;;;;;;;10.67;8.57;;;;;;;;;;5093822;28;20402;-66
2022/06/06 03:06:09;;;;;;;8.30;7.73;;;;;;;;;;5093715;28;20450;-66
2022/06/06 03:08:45;;;;;;;10.97;8.80;;;;;;;;;;5093974;28;20472;-66
2022/06/06 03:11:11;;;;;;;9.73;8.90;;;;;;;;;;5093869;28;20847;-66
2022/06/06 03:13:55;;;;;;;9.67;8.37;;;;;;;;;;5093527;28;20535;-67
2022/06/06 03:22:11;;;;;;;8.97;8.17;;;;;;;;;;5093548;28;20451;-67
2022/06/06 03:24:37;;;;;;;8.67;8.17;;;;;;;;;;5095379;28;20431;-67
2022/06/06 03:27:06;;;;;;;11.20;8.10;;;;;;;;;;5097798;28;20805;-67
2022/06/06 03:29:38;;;;;;;9.53;8.70;;;;;;;;;;5097576;28;20460;-67
2022/06/06 03:32:23;;;;;;;7.60;6.90;;;;;;;;;;5097663;28;20398;-67
2022/06/06 03:34:59;;;;;;;7.73;7.10;;;;;;;;;;5097668;28;20415;-67
2022/06/06 03:37:46;;;;;;;11.33;7.50;;;;;;;;;;5097513;28;20926;-67
2022/06/06 03:40:41;;;;;;;13.03;8.73;;;;;;;;;;5097482;28;20429;-67
2022/06/06 03:43:14;;;;;;;11.73;10.73;;;;;;;;;;5025523;28;20421;-66
2022/06/06 03:45:43;;;;;;;14.07;9.30;;;;;;;;;;5097405;28;20389;-67
2022/06/06 03:48:09;;;;;;;13.20;7.90;;;;;;;;;;5097415;28;20960;-67
2022/06/06 03:50:38;;;;;;;10.93;7.50;;;;;;;;;;5097258;28;20402;-67
2022/06/06 03:53:10;;;;;;;13.33;7.20;;;;;;;;;;5097220;28;20805;-67
2022/06/06 03:55:59;;;;;;;7.23;6.70;;;;;;;;;;5097072;28;20401;-67
2022/06/06 03:58:28;;;;;;;7.30;6.90;;;;;;;;;;5096584;28;20441;-67
2022/06/06 04:00:55;;;;;;;10.23;8.30;;;;;;;;;;5097034;28;20394;-66
2022/06/06 04:03:22;;;;;;;8.37;7.63;;;;;;;;;;5097046;28;20398;-67
2022/06/06 04:05:48;;;;;;;8.70;7.53;;;;;;;;;;5097239;28;20455;-67
2022/06/06 04:08:14;;;;;;;8.27;6.33;;;;;;;;;;5096864;28;20415;-67
2022/06/06 04:10:46;;;;;;;8.40;7.63;;;;;;;;;;5096975;28;20396;-67
2022/06/06 04:13:31;;;;;;;8.60;7.80;;;;;;;;;;5096866;28;20461;-67
2022/06/06 04:16:17;;;;;;;8.23;7.47;;;;;;;;;;5096838;28;20869;-67
2022/06/06 04:19:01;;;;;;;7.27;6.77;;;;;;;;;;5096622;28;20780;-67
2022/06/06 04:21:33;;;;;;;7.60;7.10;;;;;;;;;;5096715;28;20406;-67
2022/06/06 04:24:18;;;;;;;7.57;6.87;;;;;;;;;;5096666;28;20401;-67
2022/06/06 04:26:44;;;;;;;11.80;7.03;;;;;;;;;;5096576;28;20413;-67
2022/06/06 04:29:09;;;;;;;8.00;7.43;;;;;;;;;;5096462;28;20823;-67
2022/06/06 04:31:56;;;;;;;7.13;6.63;;;;;;;;;;5096525;28;20409;-67
2022/06/06 04:34:28;;;;;;;6.73;6.33;;;;;;;;;;5082238;28;20476;-67
2022/06/06 04:37:10;;;;;;;6.73;6.23;;;;;;;;;;5096027;28;20510;-67
2022/06/06 04:39:36;;;;;;;7.33;6.83;;;;;;;;;;5096393;28;20392;-67
2022/06/06 04:42:07;;;;;;;8.70;7.80;;;;;;;;;;5096367;28;20898;-67
2022/06/06 04:44:39;;;;;;;6.40;6.00;;;;;;;;;;5095058;28;20421;-67
2022/06/06 04:47:14;;;;;;;6.73;6.40;;;;;;;;;;5096257;28;20393;-67
2022/06/06 04:49:40;;;;;;;7.00;6.30;;;;;;;;;;5096271;28;20401;-68
2022/06/06 04:52:06;;;;;;;7.10;6.70;;;;;;;;;;5096093;28;20927;-67
2022/06/06 04:54:33;;;;;;;8.10;7.40;;;;;;;;;;5096054;28;20468;-67
2022/06/06 04:57:03;;;;;;;7.40;6.73;;;;;;;;;;5096056;28;20427;-67
2022/06/06 04:59:30;;;;;;;6.93;6.47;;;;;;;;;;5094749;28;20512;-67
2022/06/06 05:01:58;;;;;;;7.27;6.87;;;;;;;;;;5095973;28;20768;-67
2022/06/06 05:04:24;;;;;;;7.87;7.27;;;;;;;;;;5095922;28;20921;-67
2022/06/06 05:07:08;;;;;;;13.57;7.17;;;;;;;;;;5095958;28;20471;-67
2022/06/06 05:09:34;;;;;;;7.70;7.20;;;;;;;;;;5095838;28;20890;-67
2022/06/06 05:12:00;;;;;;;7.40;7.00;;;;;;;;;;5095843;28;20446;-68
2022/06/06 05:14:31;;;;;;;7.87;7.47;;;;;;;;;;5095679;28;20827;-67
2022/06/06 05:17:15;;;;;;;8.20;7.60;;;;;;;;;;5095659;28;20403;-67
2022/06/06 05:19:57;;;;;;;7.40;7.10;;;;;;;;;;5095761;28;20396;-67
2022/06/06 05:22:41;;;;;;;7.30;6.60;;;;;;;;;;5095867;28;20428;-67
2022/06/06 05:25:26;;;;;;;8.27;7.30;;;;;;;;;;5095474;28;20410;-67
2022/06/06 05:27:55;;;;;;;7.50;6.90;;;;;;;;;;5095518;28;20386;-67
2022/06/06 05:30:45;;;;;;;8.07;7.33;;;;;;;;;;5095328;28;20455;-67
2022/06/06 05:33:14;;;;;;;8.10;6.60;;;;;;;;;;5040660;28;20457;-67
2022/06/06 05:35:52;;;;;;;8.53;6.90;;;;;;;;;;5095297;28;20956;-67
2022/06/06 05:38:20;;;;;;;10.27;7.17;;;;;;;;;;5095292;28;20423;-67
2022/06/06 05:41:01;;;;;;;6.80;6.30;;;;;;;;;;5095305;28;20407;-67
2022/06/06 05:43:40;;;;;;;7.30;6.70;;;;;;;;;;5095166;28;20400;-67
2022/06/06 05:46:06;;;;;;;6.20;6.00;;;;;;;;;;5095134;28;20410;-67
2022/06/06 05:48:35;;;;;;;5.70;5.50;;;;;;;;;;5094256;28;20403;-67
2022/06/06 05:51:20;;;;;;;5.47;5.27;;;;;;;;;;5094974;28;20403;-67
2022/06/06 05:53:58;;;;;;;4.67;4.40;;;;;;;;;;5094902;28;20867;-66
2022/06/06 05:56:24;;;;;;;4.97;4.87;;;;;;;;;;5094956;28;20400;-66
2022/06/06 05:58:57;;;;;;;5.53;5.13;;;;;;;;;;5094926;28;20387;-66
2022/06/06 06:01:29;;;;;;;4.47;4.37;;;;;;;;;;5095012;28;20768;-67
2022/06/06 06:04:10;;;;;;;5.00;4.80;;;;;;;;;;5094789;28;20501;-67
2022/06/06 06:06:39;;;;;;;6.73;5.80;;;;;;;;;;5094619;28;20460;-67
2022/06/06 06:09:23;;;;;;;5.10;4.73;;;;;;;;;;5094761;28;20392;-66
2022/06/06 06:12:08;;;;;;;6.10;4.80;;;;;;;;;;5094523;28;20401;-66
2022/06/06 06:14:34;;;;;;;5.00;4.57;;;;;;;;;;5094425;28;20468;-68
2022/06/06 06:17:01;;;;;;;4.90;4.60;;;;;;;;;;5093326;28;20768;-67
2022/06/06 06:19:35;;;;;;;5.60;5.10;;;;;;;;;;5094726;28;20409;-68
2022/06/06 06:22:02;;;;;;;5.63;5.10;;;;;;;;;;5093130;28;20466;-67
2022/06/06 06:24:30;;;;;;;5.00;4.60;;;;;;;;;;5094349;28;20417;-66
2022/06/06 06:26:57;;;;;;;6.90;4.80;;;;;;;;;;5094444;28;20461;-66
2022/06/06 06:29:23;;;;;;;5.47;5.17;;;;;;;;;;5092782;28;20816;-67
2022/06/06 06:31:59;;;;;;;5.40;5.10;;;;;;;;;;5094306;28;20417;-67
2022/06/06 06:34:34;;;;;;;5.00;4.60;;;;;;;;;;5094142;28;20500;-67
2022/06/06 06:37:08;;;;;;;6.63;4.27;;;;;;;;;;5094632;28;20523;-68
2022/06/06 06:39:52;;;;;;;4.93;4.53;;;;;;;;;;5094315;28;20489;-68
2022/06/06 06:42:19;;;;;;;5.07;4.70;;;;;;;;;;5094258;28;20777;-67
2022/06/06 06:44:53;;;;;;;5.70;5.40;;;;;;;;;;5094353;28;20931;-67
2022/06/06 06:47:20;;;;;;;5.20;4.73;;;;;;;;;;5094371;28;20900;-67
2022/06/06 06:49:51;;;;;;;5.10;4.90;;;;;;;;;;5094376;28;20444;-67
2022/06/06 06:52:29;;;;;;;4.57;4.47;;;;;;;;;;5094455;28;20817;-67
2022/06/06 06:55:02;;;;;;;7.23;4.77;;;;;;;;;;5094103;28;20410;-68
2022/06/06 06:57:37;;;;;;;5.03;4.67;;;;;;;;;;5094214;28;20447;-71
2022/06/06 07:00:09;;;;;;;9.10;4.47;;;;;;;;;;5092532;28;20827;-68
2022/06/06 07:08:37;;;;;;;4.63;4.37;;;;;;;;;;5093784;28;20401;-68
2022/06/06 07:11:09;;;;;;;6.40;4.00;;;;;;;;;;5093637;28;20410;-68
2022/06/06 07:13:45;;;;;;;4.63;4.17;;;;;;;;;;5093827;28;20480;-67
2022/06/06 07:16:14;;;;;;;4.20;3.93;;;;;;;;;;5093669;28;20476;-67
2022/06/06 07:18:41;;;;;;;4.00;3.90;;;;;;;;;;5093625;28;20856;-67
2022/06/06 07:21:08;;;;;;;3.20;3.10;;;;;;;;;;5093553;28;20406;-68
2022/06/06 07:23:36;;;;;;;4.40;3.97;;;;;;;;;;5093504;28;20389;-68
2022/06/06 07:26:03;;;;;;;4.07;3.87;;;;;;;;;;5093566;28;20403;-67
2022/06/06 07:28:29;;;;;;;3.93;3.73;;;;;;;;;;5093566;28;20399;-67
2022/06/06 07:31:10;;;;;;;4.57;3.57;;;;;;;;;;5093515;28;20977;-67
2022/06/06 07:33:36;;;;;;;3.80;3.70;;;;;;;;;;5093376;28;20474;-67
2022/06/06 07:36:05;;;;;;;5.10;4.03;;;;;;;;;;5093411;28;20400;-66
2022/06/06 07:38:44;;;;;;;3.63;3.53;;;;;;;;;;5093386;28;20404;-72
2022/06/06 07:41:10;;;;;;;3.73;3.23;;;;;;;;;;5093423;28;20493;-74
2022/06/06 07:43:37;;;;;;;3.93;3.73;;;;;;;;;;5093355;28;20447;-69
2022/06/06 07:46:20;;;;;;;3.83;3.40;;;;;;;;;;5093399;28;20484;-67
2022/06/06 07:48:58;;;;;;;3.63;3.43;;;;;;;;;;5093268;28;20404;-67
2022/06/06 07:51:30;;;;;;;3.17;3.07;;;;;;;;;;5093198;28;20407;-67
2022/06/06 07:53:58;;;;;;;3.77;3.50;;;;;;;;;;5093150;28;20467;-67
2022/06/06 07:56:24;;;;;;;5.23;3.20;;;;;;;;;;5093271;28;20977;-68
2022/06/06 07:58:59;;;;;;;3.10;2.97;;;;;;;;;;5093274;28;20412;-68
2022/06/06 08:01:37;;;;;;;3.40;3.10;;;;;;;;;;5093234;28;20395;-68
2022/06/06 08:04:08;;;;;;;3.30;3.10;;;;;;;;;;5093240;28;20411;-67
2022/06/06 08:06:53;;;;;;;3.03;2.80;;;;;;;;;;5093128;28;20404;-66
2022/06/06 08:09:26;;;;;;;3.27;3.00;;;;;;;;;;5093241;28;20416;-67
2022/06/06 08:11:52;;;;;;;3.27;3.17;;;;;;;;;;5096530;28;20401;-68
2022/06/06 08:14:25;;;;;;;3.83;3.53;;;;;;;;;;5096908;28;21017;-68
2022/06/06 08:17:00;;;;;;;3.37;3.20;;;;;;;;;;5096892;28;20429;-68
2022/06/06 08:19:26;;;;;;;3.30;3.10;;;;;;;;;;5096758;28;20506;-68
2022/06/06 08:21:52;;;;;;;3.20;3.00;;;;;;;;;;5096817;28;20930;-69
2022/06/06 08:24:38;;;;;;;3.07;2.80;;;;;;;;;;5097051;28;20499;-67
2022/06/06 08:27:05;;;;;;;2.90;2.80;;;;;;;;;;5096744;28;20765;-68
2022/06/06 08:29:34;;;;;;;3.10;2.90;;;;;;;;;;5096566;28;20467;-67
2022/06/06 08:32:00;;;;;;;3.23;3.03;;;;;;;;;;5096671;28;20882;-68
2022/06/06 08:34:26;;;;;;;3.03;3.03;;;;;;;;;;5095171;28;20533;-67
2022/06/06 08:37:05;;;;;;;3.90;3.80;;;;;;;;;;5096556;28;20892;-67
2022/06/06 08:39:50;;;;;;;4.03;3.93;;;;;;;;;;5096755;28;20400;-67
2022/06/06 08:42:22;;;;;;;5.90;3.57;;;;;;;;;;5096406;28;20419;-68
2022/06/06 08:44:53;;;;;;;3.60;3.40;;;;;;;;;;5096533;28;20784;-67
2022/06/06 08:47:19;;;;;;;3.00;2.90;;;;;;;;;;5096319;28;20764;-67
2022/06/06 08:52:35;;;;;;;4.33;3.80;;;;;;;;;;5096145;28;20389;-66
2022/06/06 08:55:20;;;;;;;4.00;3.60;;;;;;;;;;5096176;28;20897;-65
2022/06/06 08:57:53;;;;;;;4.23;3.80;;;;;;;;;;5096042;28;20901;-66
2022/06/06 09:00:21;;;;;;;3.33;3.20;;;;;;;;;;5095901;28;20400;-66
2022/06/06 09:02:56;;;;;;;3.70;2.93;;;;;;;;;;5096118;28;20393;-64
2022/06/06 09:05:38;;;;;;;6.63;3.50;;;;;;;;;;5096243;28;20409;-63
2022/06/06 09:08:10;;;;;;;3.43;3.33;;;;;;;;;;5095980;28;20887;-66
2022/06/06 09:10:45;;;;;;;2.93;2.80;;;;;;;;;;5095801;28;20794;-66
2022/06/06 09:13:26;;;;;;;2.93;2.83;;;;;;;;;;5095762;28;20569;-67
2022/06/06 09:16:00;;;;;;;5.80;2.40;;;;;;;;;;5095755;28;20394;-66
2022/06/06 09:18:45;;;;;;;3.57;3.33;;;;;;;;;;5095749;28;20466;-68
2022/06/06 09:21:31;;;;;;;2.67;2.57;;;;;;;;;;5095169;28;20399;-65
2022/06/06 09:24:16;;;;;;;3.30;3.20;;;;;;;;;;5095349;28;20838;-65
2022/06/06 09:27:01;;;;;;;4.03;3.30;;;;;;;;;;5095489;28;20402;-65
2022/06/06 09:29:36;;;;;;;4.00;3.40;;;;;;;;;;5095362;28;20466;-67
2022/06/06 09:32:20;;;;;;;5.17;3.47;;;;;;;;;;5095503;28;20872;-66
2022/06/06 09:35:01;;;;;;;2.87;2.67;;;;;;;;;;5095164;28;20467;-67
2022/06/06 09:37:31;;;;;;;3.33;3.13;;;;;;;;;;5095368;28;20757;-67
2022/06/06 09:40:05;;;;;;;4.40;2.87;;;;;;;;;;5095343;28;20388;-66
2022/06/06 09:42:37;;;;;;;3.00;2.90;;;;;;;;;;5095239;28;20406;-65
2022/06/06 09:45:17;;;;;;;3.67;3.20;;;;;;;;;;5095453;28;20546;-66
2022/06/06 09:48:01;;;;;;;2.90;2.80;;;;;;;;;;5095210;28;20391;-65
2022/06/06 09:50:53;;;;;;;3.87;3.10;;;;;;;;;;5095054;28;20400;-67
2022/06/06 09:53:37;;;;;;;3.20;3.10;;;;;;;;;;5094878;28;20956;-67
2022/06/06 09:59:03;;;;;;;3.17;3.17;;;;;;;;;;5095035;28;20911;-66
2022/06/06 10:01:41;;;;;;;3.60;2.87;;;;;;;;;;5094833;28;20390;-66
2022/06/06 10:04:26;;;;;;;2.87;2.60;;;;;;;;;;5094785;28;20496;-66
2022/06/06 10:07:10;;;;;;;3.20;3.10;;;;;;;;;;5094832;28;20430;-67
2022/06/06 10:09:36;;;;;;;5.70;3.23;;;;;;;;;;5094637;28;20410;-66
2022/06/06 10:12:20;;;;;;;3.07;2.97;;;;;;;;;;5094718;28;20494;-66
2022/06/06 10:15:05;;;;;;;3.50;3.00;;;;;;;;;;5094545;28;20463;-67
2022/06/06 10:17:36;;;;;;;3.50;3.30;;;;;;;;;;5094655;28;20388;-66
2022/06/06 10:20:04;;;;;;;7.23;2.90;;;;;;;;;;5094558;28;20400;-66
2022/06/06 10:22:38;;;;;;;3.10;2.90;;;;;;;;;;5094578;28;20389;-66
2022/06/06 10:25:23;;;;;;;5.00;2.90;;;;;;;;;;5094409;28;20423;-66
2022/06/06 10:27:55;;;;;;;3.00;2.80;;;;;;;;;;5094388;28;20390;-66
2022/06/06 10:30:22;;;;;;;3.03;2.83;;;;;;;;;;5094218;28;20970;-66
2022/06/06 10:33:07;;;;;;;3.30;3.00;;;;;;;;;;5093894;28;20389;-66
2022/06/06 10:35:32;;;;;;;3.30;3.10;;;;;;;;;;5094244;28;20409;-66
2022/06/06 10:38:04;;;;;;;2.50;2.40;;;;;;;;;;5094212;28;20421;-66
2022/06/06 10:40:30;;;;;;;3.33;3.10;;;;;;;;;;5094163;28;20402;-66
2022/06/06 10:43:08;;;;;;;13.63;12.17;;;;;;;;;;5094124;28;20451;-66
2022/06/06 10:45:54;;;;;;;4.23;3.10;;;;;;;;;;5094143;28;20899;-66
2022/06/06 10:48:39;;;;;;;5.13;3.20;;;;;;;;;;5053200;28;20424;-67
2022/06/06 10:53:58;;;;;;;7.03;2.63;;;;;;;;;;5093954;28;20463;-65
2022/06/06 10:56:34;;;;;;;4.13;3.70;;;;;;;;;;5093911;28;20922;-66
2022/06/06 10:59:18;;;;;;;6.00;3.27;;;;;;;;;;5093943;28;20404;-67
2022/06/06 11:02:03;;;;;;;3.13;2.93;;;;;;;;;;5093825;28;20415;-65
2022/06/06 11:04:47;;;;;;;3.93;3.40;;;;;;;;;;5094064;28;20509;-69
2022/06/06 11:07:25;;;;;;;2.90;2.90;;;;;;;;;;5093975;28;20419;-65
2022/06/06 11:10:07;;;;;;;2.80;2.80;;;;;;;;;;5093600;28;20405;-67
2022/06/06 11:12:41;;;;;;;3.77;3.47;;;;;;;;;;5093720;28;20883;-66
2022/06/06 11:15:07;;;;;;;3.50;3.33;;;;;;;;;;5093659;28;20420;-66
2022/06/06 11:17:52;;;;;;;3.30;3.03;;;;;;;;;;5093892;28;20405;-66
2022/06/06 11:20:24;;;;;;;3.33;3.13;;;;;;;;;;5093849;28;20730;-66
2022/06/06 11:22:50;;;;;;;4.50;4.10;;;;;;;;;;5093548;28;20489;-66
2022/06/06 11:25:21;;;;;;;3.30;3.10;;;;;;;;;;5093578;28;20441;-67
2022/06/06 11:28:02;;;;;;;3.10;3.00;;;;;;;;;;5093604;28;20954;-66
2022/06/06 11:30:41;;;;;;;2.83;2.67;;;;;;;;;;5093275;28;20465;-66
2022/06/06 11:33:24;;;;;;;2.47;2.47;;;;;;;;;;5093424;28;20451;-65
2022/06/06 11:36:08;;;;;;;3.00;2.90;;;;;;;;;;5093533;28;20411;-65
2022/06/06 11:38:34;;;;;;;2.30;2.20;;;;;;;;;;5093379;28;20408;-66
2022/06/06 11:41:09;;;;;;;2.20;2.10;;;;;;;;;;5093618;28;20954;-66
2022/06/06 11:43:47;;;;;;;2.37;2.17;;;;;;;;;;5093396;28;20462;-66
2022/06/06 11:46:31;;;;;;;8.27;7.60;;;;;;;;;;5095856;28;20393;-65
2022/06/06 11:49:16;;;;;;;3.03;2.50;;;;;;;;;;5097421;28;20816;-65
2022/06/06 11:51:58;;;;;;;2.37;2.23;;;;;;;;;;5097684;28;20411;-66
2022/06/06 11:54:34;;;;;;;2.33;2.23;;;;;;;;;;5097119;28;20454;-65
2022/06/06 11:57:03;;;;;;;2.00;2.00;;;;;;;;;;5097484;28;20483;-66
2022/06/06 11:59:50;;;;;;;2.37;1.90;;;;;;;;;;5097183;28;20433;-65
2022/06/06 12:02:35;;;;;;;2.00;1.90;;;;;;;;;;5097173;28;20481;-66
2022/06/06 12:05:20;;;;;;;1.83;1.83;;;;;;;;;;5097108;28;20954;-65
2022/06/06 12:08:01;;;;;;;1.63;1.63;;;;;;;;;;5097304;28;20493;-66
2022/06/06 12:10:30;;;;;;;4.30;1.70;;;;;;;;;;5097296;28;20420;-66
2022/06/06 12:13:09;;;;;;;2.00;1.90;;;;;;;;;;5097144;28;20412;-66
2022/06/06 12:15:47;;;;;;;1.67;1.57;;;;;;;;;;5096894;28;20547;-66
2022/06/06 12:18:23;;;;;;;3.43;2.00;;;;;;;;;;5097008;28;20405;-67
2022/06/06 12:21:07;;;;;;;3.47;2.30;;;;;;;;;;5096856;28;20393;-65
2022/06/06 12:23:52;;;;;;;1.83;1.83;;;;;;;;;;5096769;28;20491;-71
2022/06/06 12:26:38;;;;;;;1.50;1.50;;;;;;;;;;5096741;28;20496;-67
2022/06/06 12:29:13;;;;;;;4.00;1.90;;;;;;;;;;5096705;28;20458;-67
2022/06/06 12:31:42;;;;;;;1.70;1.70;;;;;;;;;;5096644;28;20842;-66
2022/06/06 12:34:21;;;;;;;1.60;1.60;;;;;;;;;;5096537;28;20456;-68
2022/06/06 12:36:49;;;;;;;1.70;1.60;;;;;;;;;;5096604;28;20487;-68
2022/06/06 12:39:21;;;;;;;2.00;1.87;;;;;;;;;;5096521;28;20432;-65
2022/06/06 12:41:57;;;;;;;1.60;1.60;;;;;;;;;;5095148;28;20917;-67
2022/06/06 12:44:37;;;;;;;3.73;2.00;;;;;;;;;;5095060;28;20439;-66
2022/06/06 12:47:17;;;;;;;1.80;1.77;;;;;;;;;;5096305;28;20404;-67
2022/06/06 12:49:56;;;;;;;9.80;2.00;;;;;;;;;;5096293;28;20413;-65
2022/06/06 12:52:37;;;;;;;2.30;1.90;;;;;;;;;;5096254;28;20904;-66
2022/06/06 12:57:36;;;;;;;1.53;1.43;;;;;;;;;;5096119;28;20413;-67
2022/06/06 13:00:07;;;;;;;1.70;1.70;;;;;;;;;;5096203;28;20403;-68
2022/06/06 13:02:39;;;;;;;2.17;1.70;;;;;;;;;;5096125;28;20405;-67
2022/06/06 13:05:09;;;;;;;1.60;1.50;;;;;;;;;;5095987;28;20426;-67
2022/06/06 13:07:44;;;;;;;1.50;1.50;;;;;;;;;;5095783;28;20408;-68
2022/06/06 13:10:39;;;;;;;2.60;1.57;;;;;;;;;;5095946;28;20405;-68
2022/06/06 13:13:11;;;;;;;1.87;1.77;;;;;;;;;;5023934;28;20893;-67
2022/06/06 13:15:37;;;;;;;1.73;1.63;;;;;;;;;;5095859;28;20888;-67
2022/06/06 13:18:06;;;;;;;1.50;1.40;;;;;;;;;;5095828;28;20408;-68
2022/06/06 13:20:38;;;;;;;1.30;1.30;;;;;;;;;;5095766;28;20176;-67
2022/06/06 13:23:11;;;;;;;1.70;1.70;;;;;;;;;;5095550;28;20406;-67
2022/06/06 13:25:56;;;;;;;1.63;1.53;;;;;;;;;;5095629;28;20952;-66
2022/06/06 13:28:29;;;;;;;2.07;1.27;;;;;;;;;;5095850;28;20498;-66
2022/06/06 13:31:00;;;;;;;1.47;1.37;;;;;;;;;;5095505;28;20482;-68
2022/06/06 13:33:26;;;;;;;1.40;1.40;;;;;;;;;;5095657;28;20477;-66
2022/06/06 13:36:06;;;;;;;3.83;1.57;;;;;;;;;;5095269;28;20986;-66
2022/06/06 13:38:50;;;;;;;1.30;1.30;;;;;;;;;;5095119;28;20397;-64
2022/06/06 13:41:21;;;;;;;1.27;1.27;;;;;;;;;;5095280;28;20402;-66
2022/06/06 13:43:57;;;;;;;3.20;1.40;;;;;;;;;;5095278;28;20406;-68
2022/06/06 13:46:33;;;;;;;1.10;1.10;;;;;;;;;;5093934;28;20424;-68
2022/06/06 13:49:06;;;;;;;1.33;1.20;;;;;;;;;;5095176;28;20417;-66
2022/06/06 13:51:50;;;;;;;1.10;1.10;;;;;;;;;;5095410;28;20746;-65
2022/06/06 13:54:36;;;;;;;1.60;1.50;;;;;;;;;;5095210;28;20547;-65
2022/06/06 13:57:05;;;;;;;1.20;1.20;;;;;;;;;;5095033;28;20473;-65
2022/06/06 13:59:42;;;;;;;1.10;1.10;;;;;;;;;;5095034;28;20437;-65
2022/06/06 14:02:15;;;;;;;1.90;0.90;;;;;;;;;;5094875;28;20452;-65
2022/06/06 14:04:44;;;;;;;2.10;1.50;;;;;;;;;;5094875;28;20850;-65
2022/06/06 14:07:11;;;;;;;1.53;1.33;;;;;;;;;;5094764;28;20435;-65
2022/06/06 14:09:41;;;;;;;1.53;1.30;;;;;;;;;;5094162;28;20390;-65
2022/06/06 14:12:26;;;;;;;1.60;1.40;;;;;;;;;;5094743;28;20394;-66
2022/06/06 14:15:05;;;;;;;1.50;1.50;;;;;;;;;;5094548;28;20551;-65
2022/06/06 14:17:33;;;;;;;1.20;1.20;;;;;;;;;;5094613;28;20489;-64
2022/06/06 14:20:04;;;;;;;2.90;1.30;;;;;;;;;;5094541;28;20394;-65
2022/06/06 14:22:32;;;;;;;1.33;1.23;;;;;;;;;;5094519;28;20917;-65
2022/06/06 14:25:01;;;;;;;1.60;1.50;;;;;;;;;;5094524;28;20495;-66
2022/06/06 14:27:27;;;;;;;1.30;1.30;;;;;;;;;;5094714;28;20488;-65
2022/06/06 14:29:53;;;;;;;4.90;1.30;;;;;;;;;;5094270;28;20562;-65
2022/06/06 14:32:22;;;;;;;1.50;1.40;;;;;;;;;;5094422;28;20843;-66
2022/06/06 14:34:49;;;;;;;1.57;1.47;;;;;;;;;;5094439;28;20507;-65
2022/06/06 14:37:17;;;;;;;2.50;2.40;;;;;;;;;;5094045;28;20432;-65
2022/06/06 14:39:44;;;;;;;2.03;1.97;;;;;;;;;;5094233;28;20405;-64
2022/06/06 14:42:11;;;;;;;2.40;2.30;;;;;;;;;;5094221;28;20535;-66
2022/06/06 14:44:43;;;;;;;3.03;2.97;;;;;;;;;;5094129;28;20401;-65
2022/06/06 14:47:12;;;;;;;2.63;2.53;;;;;;;;;;5094062;28;20410;-66
2022/06/06 14:49:39;;;;;;;1.73;1.63;;;;;;;;;;5094337;28;20424;-66
2022/06/06 14:52:20;;;;;;;1.60;1.50;;;;;;;;;;5093978;28;20411;-65
2022/06/06 14:54:48;;;;;;;2.00;2.00;;;;;;;;;;5093894;28;20547;-67
2022/06/06 14:57:14;;;;;;;1.60;1.50;;;;;;;;;;5093897;28;20401;-67
2022/06/06 14:59:43;;;;;;;6.43;1.90;;;;;;;;;;5092653;28;20434;-66
2022/06/06 15:02:30;;;;;;;1.50;1.50;;;;;;;;;;5094118;28;20400;-66
2022/06/06 15:05:22;;;;;;;2.07;1.43;;;;;;;;;;5093697;28;20422;-66
2022/06/06 15:08:10;;;;;;;1.40;1.30;;;;;;;;;;5093696;28;20409;-66
2022/06/06 15:10:45;;;;;;;1.87;1.77;;;;;;;;;;5093535;28;20416;-65
2022/06/06 15:13:12;;;;;;;2.20;1.53;;;;;;;;;;5093447;28;20465;-66
2022/06/06 15:15:39;;;;;;;2.10;2.00;;;;;;;;;;5093766;28;20506;-65
2022/06/06 15:18:06;;;;;;;5.10;1.50;;;;;;;;;;5093727;28;20396;-66
2022/06/06 15:20:33;;;;;;;7.70;2.27;;;;;;;;;;5093691;28;20402;-66
2022/06/06 15:23:07;;;;;;;1.33;1.33;;;;;;;;;;5093636;28;20389;-66
2022/06/06 15:25:37;;;;;;;1.70;1.70;;;;;;;;;;5093702;28;20405;-66
2022/06/06 15:28:08;;;;;;;2.20;1.40;;;;;;;;;;5093667;28;20404;-65
2022/06/06 15:30:40;;;;;;;1.80;1.70;;;;;;;;;;5093295;28;20479;-65
2022/06/06 15:33:33;;;;;;;2.00;1.23;;;;;;;;;;5093460;28;20399;-66
2022/06/06 15:36:09;;;;;;;3.80;1.63;;;;;;;;;;5093715;28;20770;-65
2022/06/06 15:38:35;;;;;;;3.00;1.40;;;;;;;;;;5092635;28;20906;-65
2022/06/06 15:41:01;;;;;;;1.50;1.40;;;;;;;;;;5093000;28;20439;-65
2022/06/06 15:43:27;;;;;;;6.10;1.33;;;;;;;;;;5093079;28;20463;-67